createdAt,value
2022-11-13T00:02:13.834Z,101239.84
2022-11-13T00:05:00.309Z,101251.16
2022-11-13T00:07:46.818Z,101243.50
2022-11-13T00:10:33.099Z,101232.56
2022-11-13T00:13:20.870Z,101230.84
2022-11-13T00:16:10.890Z,101236.75
2022-11-13T00:18:57.091Z,101217.25
2022-11-13T00:21:43.705Z,101224.03
2022-11-13T00:24:30.143Z,101224.91
2022-11-13T00:27:16.696Z,101229.03
2022-11-13T00:30:05.207Z,101215.72
2022-11-13T00:32:51.520Z,101246.34
2022-11-13T00:35:37.937Z,101236.19
2022-11-13T00:38:24.372Z,101206.31
2022-11-13T00:41:10.851Z,101243.31
2022-11-13T00:43:57.371Z,101234.09
2022-11-13T00:46:45.198Z,101238.13
2022-11-13T00:49:31.655Z,101234.66
2022-11-13T00:52:18.256Z,101236.00
2022-11-13T00:55:05.333Z,101241.56
2022-11-13T00:57:51.894Z,101240.41
2022-11-13T01:00:38.415Z,101227.75
2022-11-13T01:03:26.163Z,101227.97
2022-11-13T01:06:15.320Z,101233.81
2022-11-13T01:09:01.805Z,101222.31
2022-11-13T01:11:48.066Z,101223.34
2022-11-13T01:14:34.590Z,101226.03
2022-11-13T01:17:21.150Z,101233.81
2022-11-13T01:20:10.069Z,101229.88
2022-11-13T01:22:56.585Z,101243.88
2022-11-13T01:25:43.150Z,101234.16
2022-11-13T01:28:29.787Z,101236.44
2022-11-13T01:31:17.791Z,101238.06
2022-11-13T01:34:04.396Z,101238.38
2022-11-13T01:36:52.559Z,101236.75
2022-11-13T01:39:38.803Z,101238.63
2022-11-13T01:42:25.390Z,101231.84
2022-11-13T01:45:49.051Z,101247.53
2022-11-13T01:48:39.822Z,101235.16
2022-11-13T01:51:30.625Z,101237.19
2022-11-13T01:54:22.832Z,101229.72
2022-11-13T01:57:10.596Z,101226.97
2022-11-13T02:00:01.423Z,101224.53
2022-11-13T02:02:47.879Z,101230.28
2022-11-13T02:05:34.672Z,101221.78
2022-11-13T02:08:21.382Z,101229.56
2022-11-13T02:11:09.098Z,101227.34
2022-11-13T02:13:55.954Z,101229.03
2022-11-13T02:16:44.023Z,101227.09
2022-11-13T02:19:33.990Z,101233.78
2022-11-13T02:22:27.233Z,101211.84
2022-11-13T02:25:15.275Z,101215.50
2022-11-13T02:28:01.826Z,101220.47
2022-11-13T02:30:48.390Z,101221.25
2022-11-13T02:33:35.046Z,101223.72
2022-11-13T02:36:23.926Z,101219.50
2022-11-13T02:39:12.998Z,101216.53
2022-11-13T02:42:00.973Z,101197.94
2022-11-13T02:44:47.716Z,101210.03
2022-11-13T02:47:34.963Z,101204.84
2022-11-13T02:50:21.554Z,101213.34
2022-11-13T02:53:08.450Z,101211.72
2022-11-13T02:55:54.949Z,101213.66
2022-11-13T02:58:42.854Z,101200.41
2022-11-13T03:01:29.117Z,101197.34
2022-11-13T03:04:15.446Z,101205.56
2022-11-13T03:07:02.031Z,101202.22
2022-11-13T03:09:48.548Z,101203.94
2022-11-13T03:12:35.349Z,101205.78
2022-11-13T03:15:23.559Z,101191.06
2022-11-13T03:18:11.192Z,101198.44
2022-11-13T03:20:57.718Z,101185.59
2022-11-13T03:23:45.544Z,101196.22
2022-11-13T03:26:31.819Z,101185.59
2022-11-13T03:29:18.208Z,101180.81
2022-11-13T03:32:06.696Z,101185.91
2022-11-13T03:34:53.225Z,101171.56
2022-11-13T03:37:39.817Z,101175.69
2022-11-13T03:40:26.367Z,101172.44
2022-11-13T03:43:12.875Z,101173.34
2022-11-13T03:45:59.144Z,101163.22
2022-11-13T03:48:46.617Z,101177.97
2022-11-13T03:51:33.334Z,101169.34
2022-11-13T03:54:20.083Z,101168.97
2022-11-13T03:57:06.664Z,101166.59
2022-11-13T03:59:53.007Z,101167.41
2022-11-13T04:02:39.568Z,101162.84
2022-11-13T04:05:27.608Z,101145.78
2022-11-13T04:08:13.831Z,101166.50
2022-11-13T04:11:07.542Z,101164.97
2022-11-13T04:13:54.080Z,101161.97
2022-11-13T04:16:40.868Z,101157.84
2022-11-13T04:19:27.091Z,101156.03
2022-11-13T04:22:15.140Z,101160.34
2022-11-13T04:25:01.426Z,101138.91
2022-11-13T04:27:49.638Z,101155.38
2022-11-13T04:30:35.852Z,101155.28
2022-11-13T04:33:22.584Z,101154.88
2022-11-13T04:36:09.249Z,101150.66
2022-11-13T04:38:57.095Z,101159.38
2022-11-13T04:42:01.007Z,101145.97
2022-11-13T04:44:47.419Z,101152.69
2022-11-13T04:47:33.593Z,101143.59
2022-11-13T04:50:20.638Z,101140.34
2022-11-13T04:53:06.979Z,101143.78
2022-11-13T04:55:54.869Z,101127.13
2022-11-13T04:58:41.198Z,101141.00
2022-11-13T05:01:27.731Z,101149.41
2022-11-13T05:04:15.131Z,101131.63
2022-11-13T05:07:01.467Z,101145.50
2022-11-13T05:09:47.974Z,101142.47
2022-11-13T05:12:35.795Z,101146.16
2022-11-13T05:15:22.307Z,101148.09
2022-11-13T05:18:08.906Z,101132.38
2022-11-13T05:20:55.519Z,101141.59
2022-11-13T05:23:42.032Z,101151.91
2022-11-13T05:26:28.630Z,101160.19
2022-11-13T05:29:16.313Z,101160.03
2022-11-13T05:32:02.927Z,101150.06
2022-11-13T05:34:49.560Z,101160.88
2022-11-13T05:37:35.902Z,101145.75
2022-11-13T05:40:22.575Z,101164.13
2022-11-13T05:43:08.946Z,101163.16
2022-11-13T05:46:02.378Z,101163.72
2022-11-13T05:48:52.968Z,101173.88
2022-11-13T05:51:39.326Z,101165.16
2022-11-13T05:54:25.872Z,101165.22
2022-11-13T05:57:12.290Z,101165.88
2022-11-13T05:59:58.660Z,101165.63
2022-11-13T06:02:46.325Z,101170.59
2022-11-13T06:05:35.843Z,101169.13
2022-11-13T06:08:21.980Z,101172.97
2022-11-13T06:11:10.214Z,101174.63
2022-11-13T06:13:58.316Z,101180.03
2022-11-13T06:16:44.823Z,101192.06
2022-11-13T06:19:32.695Z,101186.34
2022-11-13T06:22:19.101Z,101189.25
2022-11-13T06:25:06.463Z,101192.31
2022-11-13T06:27:54.072Z,101197.13
2022-11-13T06:30:40.413Z,101196.72
2022-11-13T06:33:29.396Z,101184.47
2022-11-13T06:36:21.361Z,101170.50
2022-11-13T06:39:09.112Z,101194.44
2022-11-13T06:41:55.611Z,101190.16
2022-11-13T06:44:42.276Z,101187.06
2022-11-13T06:47:29.508Z,101185.25
2022-11-13T06:50:15.907Z,101175.47
2022-11-13T06:53:03.773Z,101177.88
2022-11-13T06:55:51.489Z,101190.41
2022-11-13T06:58:37.911Z,101179.69
2022-11-13T07:01:26.484Z,101165.22
2022-11-13T07:04:16.553Z,101183.25
2022-11-13T07:07:03.065Z,101181.63
2022-11-13T07:09:50.885Z,101190.25
2022-11-13T07:12:37.459Z,101186.03
2022-11-13T07:15:23.939Z,101195.69
2022-11-13T07:18:10.393Z,101185.91
2022-11-13T07:20:56.931Z,101186.97
2022-11-13T07:23:44.499Z,101171.25
2022-11-13T07:26:34.100Z,101191.66
2022-11-13T07:29:21.111Z,101187.75
2022-11-13T07:32:07.545Z,101181.59
2022-11-13T07:34:54.261Z,101157.28
2022-11-13T07:37:41.092Z,101176.13
2022-11-13T07:40:27.391Z,101171.44
2022-11-13T07:43:15.435Z,101178.50
2022-11-13T07:46:02.536Z,101172.00
2022-11-13T07:48:49.172Z,101178.13
2022-11-13T07:51:35.624Z,101172.56
2022-11-13T07:54:22.205Z,101183.94
2022-11-13T07:57:09.060Z,101183.44
2022-11-13T07:59:56.818Z,101171.22
2022-11-13T08:02:43.294Z,101158.56
2022-11-13T08:05:31.528Z,101181.91
2022-11-13T08:08:18.122Z,101170.41
2022-11-13T08:11:06.249Z,101167.81
2022-11-13T08:13:53.541Z,101178.47
2022-11-13T08:16:41.246Z,101171.78
2022-11-13T08:19:27.451Z,101170.25
2022-11-13T08:22:13.991Z,101168.13
2022-11-13T08:25:00.633Z,101168.41
2022-11-13T08:27:46.863Z,101165.63
2022-11-13T08:30:33.234Z,101168.38
2022-11-13T08:33:21.180Z,101163.88
2022-11-13T08:36:08.363Z,101171.91
2022-11-13T08:38:54.838Z,101181.81
2022-11-13T08:41:41.047Z,101179.66
2022-11-13T08:44:27.600Z,101175.03
2022-11-13T08:47:13.904Z,101171.94
2022-11-13T08:50:01.760Z,101187.28
2022-11-13T08:52:48.309Z,101180.91
2022-11-13T08:55:35.508Z,101177.63
2022-11-13T08:58:21.767Z,101181.06
2022-11-13T09:01:08.386Z,101181.25
2022-11-13T09:03:54.912Z,101185.06
2022-11-13T09:06:42.607Z,101186.25
2022-11-13T09:09:29.096Z,101184.88
2022-11-13T09:12:15.694Z,101177.66
2022-11-13T09:15:02.236Z,101180.38
2022-11-13T09:17:48.664Z,101181.59
2022-11-13T09:20:35.250Z,101180.06
2022-11-13T09:23:23.112Z,101188.69
2022-11-13T09:26:09.645Z,101173.88
2022-11-13T09:28:56.252Z,101179.00
2022-11-13T09:31:42.641Z,101167.63
2022-11-13T09:34:29.816Z,101161.94
2022-11-13T09:37:16.423Z,101165.41
2022-11-13T09:40:04.622Z,101167.22
2022-11-13T09:42:51.332Z,101159.03
2022-11-13T09:45:41.562Z,101156.75
2022-11-13T09:48:33.152Z,101153.56
2022-11-13T09:51:22.168Z,101146.41
2022-11-13T09:54:13.431Z,101150.00
2022-11-13T09:57:11.452Z,101146.19
2022-11-13T10:00:01.841Z,101140.56
2022-11-13T10:02:59.480Z,101133.41
2022-11-13T10:05:53.512Z,101132.16
2022-11-13T10:08:51.929Z,101134.38
2022-11-13T10:11:42.288Z,101133.81
2022-11-13T10:14:35.791Z,101125.72
2022-11-13T10:17:26.343Z,101121.03
2022-11-13T10:20:16.969Z,101116.97
2022-11-13T10:23:09.889Z,101113.84
2022-11-13T10:26:00.969Z,101120.63
2022-11-13T10:28:51.508Z,101106.72
2022-11-13T10:31:48.676Z,101099.38
2022-11-13T10:34:35.022Z,101091.94
2022-11-13T10:37:31.252Z,101090.38
2022-11-13T10:40:26.090Z,101082.88
2022-11-13T10:43:17.747Z,101068.31
2022-11-13T10:46:06.787Z,101071.22
2022-11-13T10:48:54.378Z,101061.22
2022-11-13T10:51:41.014Z,101062.94
2022-11-13T10:54:28.900Z,101056.50
2022-11-13T10:57:25.745Z,101061.66
2022-11-13T11:00:24.195Z,101031.03
2022-11-13T11:03:15.915Z,101055.38
2022-11-13T11:06:06.273Z,101041.16
2022-11-13T11:08:52.385Z,101039.94
2022-11-13T11:11:56.580Z,101041.81
2022-11-13T11:14:51.356Z,101041.88
2022-11-13T11:17:43.699Z,101044.53
2022-11-13T11:20:42.120Z,101035.53
2022-11-13T11:23:38.338Z,101032.44
2022-11-13T11:26:31.763Z,101023.19
2022-11-13T11:29:22.806Z,101028.66
2022-11-13T11:32:17.816Z,101022.94
2022-11-13T11:35:13.958Z,101012.78
2022-11-13T11:38:06.435Z,101013.63
2022-11-13T11:41:00.386Z,101007.06
2022-11-13T11:43:49.986Z,101000.47
2022-11-13T11:46:37.354Z,100999.00
2022-11-13T11:49:27.630Z,100986.72
2022-11-13T11:52:30.700Z,100988.56
2022-11-13T11:55:32.284Z,100979.41
2022-11-13T11:58:55.885Z,100972.81
2022-11-13T12:01:59.261Z,100968.09
2022-11-13T12:04:59.720Z,100967.56
2022-11-13T12:07:54.239Z,100960.31
2022-11-13T12:10:49.371Z,100968.91
2022-11-13T12:13:45.319Z,100947.53
2022-11-13T12:16:42.538Z,100955.31
2022-11-13T12:19:38.738Z,100955.56
2022-11-13T12:22:32.021Z,100943.22
2022-11-13T12:25:28.764Z,100945.44
2022-11-13T12:28:21.357Z,100930.84
2022-11-13T12:31:18.744Z,100928.72
2022-11-13T12:34:14.210Z,100929.94
2022-11-13T12:37:02.850Z,100932.72
2022-11-13T12:39:57.138Z,100921.13
2022-11-13T12:42:49.270Z,100917.81
2022-11-13T12:45:50.708Z,100917.22
2022-11-13T12:48:40.682Z,100910.06
2022-11-13T12:51:38.307Z,100913.03
2022-11-13T12:54:29.711Z,100918.38
2022-11-13T12:57:25.850Z,100925.31
2022-11-13T13:00:26.775Z,100907.97
2022-11-13T13:03:37.123Z,100912.47
2022-11-13T13:06:46.080Z,100909.41
2022-11-13T13:09:50.678Z,100913.75
2022-11-13T13:12:49.412Z,100907.19
2022-11-13T13:15:38.414Z,100906.78
2022-11-13T13:18:30.922Z,100904.56
2022-11-13T13:21:19.398Z,100903.91
2022-11-13T13:24:27.796Z,100899.91
2022-11-13T13:27:23.355Z,100900.09
2022-11-13T13:30:20.136Z,100899.44
2022-11-13T13:33:20.510Z,100894.50
2022-11-13T13:36:18.466Z,100897.94
2022-11-13T13:39:17.255Z,100893.03
2022-11-13T13:42:17.771Z,100885.72
2022-11-13T13:45:24.948Z,100885.72
2022-11-13T13:48:14.200Z,100884.78
2022-11-13T13:51:01.581Z,100882.41
2022-11-13T13:53:50.138Z,100877.41
2022-11-13T13:56:43.304Z,100876.50
2022-11-13T13:59:33.788Z,100868.91
2022-11-13T14:02:23.138Z,100868.69
2022-11-13T14:05:24.691Z,100881.38
2022-11-13T14:08:18.015Z,100877.94
2022-11-13T14:11:16.769Z,100872.81
2022-11-13T14:14:11.356Z,100870.25
2022-11-13T14:17:00.452Z,100868.63
2022-11-13T14:19:50.681Z,100869.50
2022-11-13T14:22:37.538Z,100865.31
2022-11-13T14:25:27.948Z,100864.34
2022-11-13T14:28:16.942Z,100859.19
2022-11-13T14:31:07.939Z,100841.22
2022-11-13T14:33:54.837Z,100862.41
2022-11-13T14:36:41.313Z,100855.50
2022-11-13T14:39:31.384Z,100848.66
2022-11-13T14:42:20.313Z,100851.69
2022-11-13T14:45:15.007Z,100845.41
2022-11-13T14:48:05.306Z,100851.13
2022-11-13T14:50:53.327Z,100852.44
2022-11-13T14:53:42.663Z,100860.34
2022-11-13T14:56:36.992Z,100854.00
2022-11-13T14:59:27.857Z,100849.31
2022-11-13T15:02:14.627Z,100848.81
2022-11-13T15:05:02.310Z,100844.84
2022-11-13T15:07:48.961Z,100843.50
2022-11-13T15:10:35.417Z,100851.34
2022-11-13T15:13:21.840Z,100844.91
2022-11-13T15:16:12.067Z,100837.72
2022-11-13T15:19:02.781Z,100841.44
2022-11-13T15:22:20.270Z,100841.13
2022-11-13T15:24:56.700Z,100832.09
2022-11-13T15:27:43.612Z,100837.84
2022-11-13T15:30:29.929Z,100846.59
2022-11-13T15:33:17.722Z,100838.75
2022-11-13T15:36:03.833Z,100844.31
2022-11-13T15:38:51.489Z,100840.53
2022-11-13T15:41:38.108Z,100845.22
2022-11-13T15:44:24.634Z,100840.72
2022-11-13T15:47:26.452Z,100855.44
2022-11-13T15:50:15.347Z,100844.25
2022-11-13T15:53:05.516Z,100849.06
2022-11-13T15:55:53.548Z,100843.75
2022-11-13T15:58:40.107Z,100844.34
2022-11-13T16:01:26.905Z,100844.06
2022-11-13T16:04:14.851Z,100838.66
2022-11-13T16:07:01.297Z,100849.59
2022-11-13T16:09:48.849Z,100842.59
2022-11-13T16:12:36.505Z,100846.66
2022-11-13T16:15:22.945Z,100835.91
2022-11-13T16:18:19.729Z,100846.06
2022-11-13T16:21:06.838Z,100847.47
2022-11-13T16:23:53.350Z,100848.88
2022-11-13T16:26:41.972Z,100858.88
2022-11-13T16:29:30.897Z,100834.34
2022-11-13T16:32:18.350Z,100848.47
2022-11-13T16:35:04.905Z,100847.31
2022-11-13T16:37:51.284Z,100844.56
2022-11-13T16:40:37.711Z,100839.31
2022-11-13T16:43:24.245Z,100837.22
2022-11-13T16:46:21.404Z,100848.22
2022-11-13T16:49:12.763Z,100837.34
2022-11-13T16:51:59.175Z,100832.28
2022-11-13T16:54:46.194Z,100828.53
2022-11-13T16:57:32.619Z,100826.53
2022-11-13T17:00:20.666Z,100827.25
2022-11-13T17:03:08.253Z,100824.69
2022-11-13T17:05:54.792Z,100823.81
2022-11-13T17:08:41.332Z,100826.25
2022-11-13T17:11:29.872Z,100822.81
2022-11-13T17:14:16.453Z,100819.38
2022-11-13T17:17:02.888Z,100829.34
2022-11-13T17:19:50.703Z,100824.09
2022-11-13T17:22:37.348Z,100824.78
2022-11-13T17:25:26.522Z,100825.47
2022-11-13T17:28:12.870Z,100807.31
2022-11-13T17:31:02.870Z,100828.34
2022-11-13T17:33:49.595Z,100835.41
2022-11-13T17:36:37.359Z,100828.44
2022-11-13T17:39:24.004Z,100818.22
2022-11-13T17:42:10.606Z,100832.44
2022-11-13T17:44:57.096Z,100832.38
2022-11-13T17:47:43.809Z,100831.19
2022-11-13T17:50:30.439Z,100835.84
2022-11-13T17:53:18.115Z,100835.84
2022-11-13T17:56:08.129Z,100837.50
2022-11-13T17:58:54.579Z,100844.13
2022-11-13T18:01:41.151Z,100830.63
2022-11-13T18:04:27.515Z,100837.81
2022-11-13T18:07:14.048Z,100841.22
2022-11-13T18:10:01.976Z,100837.13
2022-11-13T18:12:48.417Z,100843.81
2022-11-13T18:15:36.415Z,100842.19
2022-11-13T18:18:23.025Z,100833.25
2022-11-13T18:21:22.368Z,100819.19
2022-11-13T18:24:14.059Z,100814.56
2022-11-13T18:27:02.058Z,100836.91
2022-11-13T18:29:48.669Z,100841.03
2022-11-13T18:32:35.050Z,100844.44
2022-11-13T18:35:21.715Z,100834.16
2022-11-13T18:38:08.286Z,100847.72
2022-11-13T18:41:01.299Z,100846.53
2022-11-13T18:43:50.791Z,100846.19
2022-11-13T18:46:37.146Z,100854.28
2022-11-13T18:49:23.760Z,100844.94
2022-11-13T18:52:10.507Z,100843.88
2022-11-13T18:54:56.623Z,100827.44
2022-11-13T18:57:44.684Z,100839.31
2022-11-13T19:00:32.597Z,100842.75
2022-11-13T19:03:19.027Z,100834.50
2022-11-13T19:06:07.043Z,100840.03
2022-11-13T19:08:56.711Z,100840.34
2022-11-13T19:11:44.198Z,100843.78
2022-11-13T19:14:30.679Z,100832.69
2022-11-13T19:17:18.695Z,100843.63
2022-11-13T19:20:06.031Z,100840.81
2022-11-13T19:22:52.277Z,100842.75
2022-11-13T19:25:38.721Z,100842.75
2022-11-13T19:28:25.528Z,100852.13
2022-11-13T19:31:14.294Z,100851.19
2022-11-13T19:34:04.720Z,100856.00
2022-11-13T19:36:51.440Z,100863.47
2022-11-13T19:39:38.140Z,100846.06
2022-11-13T19:42:24.724Z,100852.56
2022-11-13T19:45:12.021Z,100847.59
2022-11-13T19:47:58.519Z,100839.53
2022-11-13T19:50:47.355Z,100843.28
2022-11-13T19:53:33.881Z,100847.00
2022-11-13T19:56:21.993Z,100851.91
2022-11-13T19:59:11.955Z,100823.78
2022-11-13T20:01:58.154Z,100848.59
2022-11-13T20:04:44.448Z,100848.59
2022-11-13T20:07:32.471Z,100851.38
2022-11-13T20:10:19.127Z,100842.75
2022-11-13T20:13:05.603Z,100839.28
2022-11-13T20:15:54.384Z,100852.91
2022-11-13T20:18:42.756Z,100843.81
2022-11-13T20:21:31.357Z,100843.81
2022-11-13T20:24:19.243Z,100839.50
2022-11-13T20:27:05.715Z,100840.72
2022-11-13T20:29:52.325Z,100845.50
2022-11-13T20:32:39.156Z,100837.75
2022-11-13T20:35:25.276Z,100841.56
2022-11-13T20:38:11.955Z,100848.97
2022-11-13T20:40:59.781Z,100849.66
2022-11-13T20:43:46.155Z,100845.88
2022-11-13T20:46:32.650Z,100839.78
2022-11-13T20:49:19.164Z,100834.84
2022-11-13T20:52:07.038Z,100840.47
2022-11-13T20:54:53.631Z,100833.00
2022-11-13T20:57:41.369Z,100828.03
2022-11-13T21:00:27.761Z,100834.25
2022-11-13T21:03:14.590Z,100835.94
2022-11-13T21:06:01.192Z,100842.63
2022-11-13T21:08:47.970Z,100843.34
2022-11-13T21:11:34.383Z,100845.72
2022-11-13T21:14:22.226Z,100836.41
2022-11-13T21:17:08.573Z,100839.66
2022-11-13T21:19:57.584Z,100844.78
2022-11-13T21:22:44.183Z,100842.69
2022-11-13T21:25:30.928Z,100846.31
2022-11-13T21:28:22.427Z,100848.22
2022-11-13T21:31:15.523Z,100835.03
2022-11-13T21:34:01.828Z,100824.88
2022-11-13T21:36:48.414Z,100829.09
2022-11-13T21:39:34.861Z,100825.81
2022-11-13T21:42:21.394Z,100826.25
2022-11-13T21:45:08.838Z,100810.28
2022-11-13T21:47:56.426Z,100819.25
2022-11-13T21:50:42.912Z,100818.41
2022-11-13T21:53:29.399Z,100818.31
2022-11-13T21:56:16.933Z,100805.38
2022-11-13T21:59:03.515Z,100814.75
2022-11-13T22:01:50.233Z,100820.66
2022-11-13T22:04:38.167Z,100815.69
2022-11-13T22:07:24.647Z,100816.38
2022-11-13T22:10:11.210Z,100817.13
2022-11-13T22:12:57.741Z,100801.34
2022-11-13T22:15:44.163Z,100815.69
2022-11-13T22:18:31.315Z,100815.69
2022-11-13T22:21:19.336Z,100808.22
2022-11-13T22:24:06.219Z,100813.97
2022-11-13T22:26:52.610Z,100822.56
2022-11-13T22:29:39.263Z,100816.84
2022-11-13T22:32:25.367Z,100811.63
2022-11-13T22:35:11.858Z,100810.69
2022-11-13T22:37:59.796Z,100819.75
2022-11-13T22:40:46.262Z,100821.88
2022-11-13T22:43:34.182Z,100818.72
2022-11-13T22:46:22.067Z,100817.00
2022-11-13T22:49:08.439Z,100817.47
2022-11-13T22:51:54.656Z,100808.13
2022-11-13T22:54:42.453Z,100810.72
2022-11-13T22:57:28.915Z,100807.94
2022-11-13T23:00:15.862Z,100802.22
2022-11-13T23:03:02.018Z,100800.50
2022-11-13T23:05:48.554Z,100799.53
2022-11-13T23:08:38.637Z,100796.28
2022-11-13T23:11:28.213Z,100788.25
2022-11-13T23:14:15.684Z,100786.72
2022-11-13T23:17:02.296Z,100782.53
2022-11-13T23:19:48.667Z,100784.72
2022-11-13T23:22:35.113Z,100784.28
2022-11-13T23:25:21.626Z,100769.28
2022-11-13T23:28:09.435Z,100771.09
2022-11-13T23:30:56.330Z,100749.88
2022-11-13T23:33:42.997Z,100769.59
2022-11-13T23:36:30.546Z,100764.91
2022-11-13T23:39:16.800Z,100766.03
2022-11-13T23:42:03.116Z,100762.44
2022-11-13T23:44:50.862Z,100757.28
2022-11-13T23:47:37.425Z,100744.38
2022-11-13T23:50:24.239Z,100757.28
2022-11-13T23:53:10.994Z,100762.16
2022-11-13T23:55:57.442Z,100766.47
2022-11-13T23:58:44.119Z,100763.16
